createdAt,value
2023-04-03T00:00:26.782Z,1.90
2023-04-03T00:06:28.537Z,1.80
2023-04-03T00:12:30.239Z,1.90
2023-04-03T00:18:32.231Z,1.90
2023-04-03T00:24:33.990Z,1.80
2023-04-03T00:30:36.305Z,1.70
2023-04-03T00:36:38.296Z,1.60
2023-04-03T00:42:44.301Z,1.60
2023-04-03T00:48:47.524Z,1.50
2023-04-03T00:54:51.507Z,1.50
2023-04-03T01:00:59.075Z,1.40
2023-04-03T01:07:09.151Z,1.40
2023-04-03T01:13:44.009Z,1.30
2023-04-03T01:19:54.475Z,1.20
2023-04-03T01:25:58.083Z,1.20
2023-04-03T01:32:02.364Z,1.10
2023-04-03T01:38:04.114Z,1.00
2023-04-03T01:44:06.231Z,0.90
2023-04-03T01:50:08.312Z,0.90
2023-04-03T01:56:10.320Z,0.80
2023-04-03T02:02:13.466Z,0.70
2023-04-03T02:08:15.413Z,0.70
2023-04-03T02:14:17.207Z,0.60
2023-04-03T02:20:19.191Z,0.50
2023-04-03T02:26:20.977Z,0.40
2023-04-03T02:32:22.781Z,0.40
2023-04-03T02:38:24.785Z,0.40
2023-04-03T02:44:26.580Z,0.20
2023-04-03T02:50:28.297Z,0.20
2023-04-03T02:56:30.103Z,0.10
2023-04-03T03:02:31.870Z,0.00
2023-04-03T03:08:34.542Z,-0.10
2023-04-03T03:14:36.330Z,-0.20
2023-04-03T03:20:38.243Z,-0.20
2023-04-03T03:26:40.391Z,-0.20
2023-04-03T03:32:42.227Z,-0.20
2023-04-03T03:38:44.063Z,-0.20
2023-04-03T03:44:45.878Z,-0.20
2023-04-03T03:50:48.224Z,-0.30
2023-04-03T03:56:49.953Z,-0.40
2023-04-03T04:02:51.822Z,-0.50
2023-04-03T04:08:53.726Z,-0.50
2023-04-03T04:14:55.483Z,-0.50
2023-04-03T04:20:57.325Z,-0.60
2023-04-03T04:26:59.616Z,-0.60
2023-04-03T04:33:02.045Z,-0.60
2023-04-03T04:39:03.973Z,-0.60
2023-04-03T04:45:06.134Z,-0.70
2023-04-03T04:51:07.921Z,-0.80
2023-04-03T04:57:09.928Z,-0.60
2023-04-03T05:03:12.028Z,-0.70
2023-04-03T05:09:14.074Z,-0.70
2023-04-03T05:15:16.040Z,-0.60
2023-04-03T05:21:19.279Z,-0.70
2023-04-03T05:27:21.072Z,0.20
2023-04-03T05:33:23.798Z,1.10
2023-04-03T05:39:26.508Z,0.40
2023-04-03T05:45:28.290Z,-0.10
2023-04-03T05:51:34.416Z,-0.20
2023-04-03T05:57:36.389Z,0.00
2023-04-03T06:03:40.306Z,1.80
2023-04-03T06:09:43.298Z,1.60
2023-04-03T06:15:45.436Z,1.40
2023-04-03T06:21:48.240Z,1.00
2023-04-03T06:27:50.051Z,0.80
2023-04-03T06:33:51.791Z,0.70
2023-04-03T06:39:53.815Z,1.40
2023-04-03T06:45:55.842Z,1.70
2023-04-03T06:51:58.533Z,1.30
2023-04-03T06:58:01.623Z,1.30
2023-04-03T07:04:03.442Z,1.70
2023-04-03T07:10:07.276Z,1.60
2023-04-03T07:16:09.977Z,2.10
2023-04-03T07:22:12.207Z,2.40
2023-04-03T07:28:15.561Z,2.30
2023-04-03T07:34:17.502Z,2.30
2023-04-03T07:40:20.355Z,2.40
2023-04-03T07:46:22.799Z,2.90
2023-04-03T07:52:25.716Z,3.00
2023-04-03T07:58:27.861Z,2.90
2023-04-03T08:04:29.770Z,3.20
2023-04-03T08:10:32.316Z,3.10
2023-04-03T08:16:34.366Z,3.20
2023-04-03T08:22:36.634Z,3.30
2023-04-03T08:28:39.446Z,3.10
2023-04-03T08:34:41.180Z,3.70
2023-04-03T08:40:46.893Z,4.10
2023-04-03T08:47:07.513Z,4.30
2023-04-03T08:53:28.193Z,4.40
2023-04-03T08:59:35.447Z,4.60
2023-04-03T09:06:01.042Z,4.70
2023-04-03T09:12:16.840Z,5.00
2023-04-03T09:18:26.185Z,5.10
2023-04-03T09:24:28.847Z,5.10
2023-04-03T09:30:30.721Z,5.10
2023-04-03T09:37:00.588Z,5.20
2023-04-03T09:43:21.136Z,5.70
2023-04-03T09:49:22.929Z,6.30
2023-04-03T09:55:30.742Z,5.70
2023-04-03T10:01:35.720Z,4.90
2023-04-03T10:07:41.216Z,5.30
2023-04-03T10:13:58.042Z,5.70
2023-04-03T10:20:23.947Z,5.50
2023-04-03T10:26:40.254Z,6.20
2023-04-03T10:33:06.872Z,6.00
2023-04-03T10:39:27.980Z,5.90
2023-04-03T10:45:52.705Z,5.70
2023-04-03T10:52:01.658Z,5.40
2023-04-03T10:58:05.577Z,5.30
2023-04-03T11:04:09.018Z,5.10
2023-04-03T11:10:20.507Z,5.40
2023-04-03T11:16:28.035Z,5.30
2023-04-03T11:22:54.183Z,5.30
2023-04-03T11:29:08.109Z,5.30
2023-04-03T11:35:10.708Z,5.70
2023-04-03T11:41:14.904Z,5.80
2023-04-03T11:48:23.196Z,5.70
2023-04-03T11:54:44.851Z,7.00
2023-04-03T12:01:04.630Z,7.40
2023-04-03T12:07:17.772Z,7.60
2023-04-03T12:13:20.064Z,7.00
2023-04-03T12:19:26.465Z,6.60
2023-04-03T12:25:51.300Z,6.80
2023-04-03T12:31:56.075Z,6.70
2023-04-03T12:38:13.198Z,6.70
2023-04-03T12:44:17.886Z,6.90
2023-04-03T12:50:25.843Z,7.00
2023-04-03T12:56:32.085Z,7.10
2023-04-03T13:02:36.525Z,6.80
2023-04-03T13:08:38.422Z,6.60
2023-04-03T13:14:41.914Z,6.30
2023-04-03T13:20:43.910Z,6.70
2023-04-03T13:26:46.212Z,7.20
2023-04-03T13:32:48.406Z,6.80
2023-04-03T13:39:03.874Z,6.70
2023-04-03T13:45:29.406Z,7.40
2023-04-03T13:51:31.610Z,7.40
2023-04-03T13:57:33.487Z,7.60
2023-04-03T14:03:49.017Z,7.70
2023-04-03T14:09:51.689Z,7.60
2023-04-03T14:15:55.028Z,7.80
2023-04-03T14:21:59.116Z,7.90
2023-04-03T14:28:01.605Z,7.50
2023-04-03T14:34:03.379Z,6.90
2023-04-03T14:40:07.092Z,7.10
2023-04-03T14:46:43.007Z,7.40
2023-04-03T14:52:46.454Z,8.00
2023-04-03T14:58:51.356Z,7.80
2023-04-03T15:04:53.844Z,6.90
2023-04-03T15:10:57.170Z,7.40
2023-04-03T15:16:59.020Z,8.30
2023-04-03T15:23:02.223Z,8.60
2023-04-03T15:29:05.846Z,7.50
2023-04-03T15:35:08.079Z,6.90
2023-04-03T15:41:09.909Z,7.20
2023-04-03T15:47:11.853Z,8.00
2023-04-03T15:53:13.574Z,8.00
2023-04-03T15:59:15.458Z,7.30
2023-04-03T16:05:18.356Z,6.70
2023-04-03T16:11:20.291Z,7.10
2023-04-03T16:17:22.133Z,7.50
2023-04-03T16:23:24.316Z,8.00
2023-04-03T16:29:26.219Z,7.90
2023-04-03T16:35:28.078Z,7.70
2023-04-03T16:41:29.838Z,7.10
2023-04-03T16:47:32.066Z,6.90
2023-04-03T16:53:33.891Z,6.90
2023-04-03T16:59:35.844Z,6.70
2023-04-03T17:05:37.990Z,6.40
2023-04-03T17:11:40.186Z,6.50
2023-04-03T17:17:42.286Z,6.50
2023-04-03T17:23:47.365Z,6.40
2023-04-03T17:29:49.123Z,6.20
2023-04-03T17:35:51.190Z,6.10
2023-04-03T17:41:55.014Z,5.90
2023-04-03T17:47:56.977Z,5.80
2023-04-03T17:53:58.910Z,5.80
2023-04-03T18:00:00.717Z,5.60
2023-04-03T18:06:08.537Z,5.50
2023-04-03T18:12:10.549Z,5.30
2023-04-03T18:18:12.654Z,5.10
2023-04-03T18:24:17.149Z,5.20
2023-04-03T18:30:19.049Z,5.00
2023-04-03T18:36:21.443Z,4.80
2023-04-03T18:42:26.211Z,4.70
2023-04-03T18:48:28.978Z,4.60
2023-04-03T18:54:32.508Z,4.60
2023-04-03T19:00:34.528Z,4.40
2023-04-03T19:06:37.533Z,4.30
2023-04-03T19:12:39.273Z,4.30
2023-04-03T19:18:41.119Z,4.20
2023-04-03T19:24:42.899Z,4.20
2023-04-03T19:30:48.206Z,4.10
2023-04-03T19:36:52.219Z,4.10
2023-04-03T19:42:54.095Z,4.00
2023-04-03T19:48:56.514Z,3.90
2023-04-03T19:54:58.265Z,3.90
2023-04-03T20:01:00.731Z,3.70
2023-04-03T20:07:02.893Z,3.60
2023-04-03T20:13:08.522Z,3.50
2023-04-03T20:19:10.505Z,3.40
2023-04-03T20:25:15.364Z,3.30
2023-04-03T20:31:21.207Z,3.20
2023-04-03T20:37:24.069Z,3.10
2023-04-03T20:43:26.144Z,2.90
2023-04-03T20:49:27.924Z,2.90
2023-04-03T20:55:30.408Z,2.80
2023-04-03T21:01:33.343Z,2.70
2023-04-03T21:08:12.740Z,2.70
2023-04-03T21:14:53.011Z,2.50
2023-04-03T21:20:55.868Z,2.30
2023-04-03T21:26:57.920Z,2.20
2023-04-03T21:32:59.702Z,2.10
2023-04-03T21:39:01.859Z,2.00
2023-04-03T21:45:04.011Z,1.90
2023-04-03T21:51:06.953Z,1.80
2023-04-03T21:57:11.684Z,1.80
2023-04-03T22:03:18.501Z,1.80
2023-04-03T22:09:20.310Z,1.80
2023-04-03T22:15:22.465Z,1.90
2023-04-03T22:21:24.308Z,2.00
2023-04-03T22:27:26.253Z,2.00
2023-04-03T22:33:28.039Z,1.90
2023-04-03T22:39:29.804Z,1.90
2023-04-03T22:45:31.526Z,1.80
2023-04-03T22:51:33.279Z,1.70
2023-04-03T22:57:35.148Z,1.70
2023-04-03T23:03:38.210Z,1.50
2023-04-03T23:09:40.053Z,1.40
2023-04-03T23:15:41.861Z,1.30
2023-04-03T23:21:43.726Z,1.20
2023-04-03T23:27:54.876Z,1.20
2023-04-03T23:33:56.735Z,1.30
2023-04-03T23:39:58.625Z,1.20
2023-04-03T23:46:01.956Z,1.10
2023-04-03T23:52:03.839Z,1.00
2023-04-03T23:58:05.764Z,0.90
